createdAt,value
2022-09-28T00:01:18.658Z,11.40
2022-09-28T00:03:47.506Z,11.40
2022-09-28T00:06:18.512Z,11.40
2022-09-28T00:08:50.252Z,11.40
2022-09-28T00:11:20.737Z,11.40
2022-09-28T00:13:52.371Z,11.30
2022-09-28T00:16:24.071Z,11.40
2022-09-28T00:18:52.388Z,11.40
2022-09-28T00:21:22.783Z,11.40
2022-09-28T00:24:14.899Z,11.40
2022-09-28T00:26:45.720Z,11.40
2022-09-28T00:29:21.363Z,11.40
2022-09-28T00:31:52.306Z,11.40
2022-09-28T00:34:21.940Z,11.40
2022-09-28T00:36:50.144Z,11.40
2022-09-28T00:39:19.795Z,11.40
2022-09-28T00:41:48.267Z,11.50
2022-09-28T00:44:58.863Z,11.40
2022-09-28T00:47:49.738Z,11.50
2022-09-28T00:50:28.079Z,11.50
2022-09-28T00:53:01.840Z,11.50
2022-09-28T00:55:37.630Z,11.50
2022-09-28T00:58:08.823Z,11.50
2022-09-28T01:00:37.049Z,11.50
2022-09-28T01:03:05.517Z,11.50
2022-09-28T01:05:35.651Z,11.50
2022-09-28T01:08:04.583Z,11.50
2022-09-28T01:10:34.723Z,11.50
2022-09-28T01:13:02.972Z,11.50
2022-09-28T01:15:35.064Z,11.50
2022-09-28T01:18:12.697Z,11.50
2022-09-28T01:20:54.408Z,11.40
2022-09-28T01:24:05.183Z,11.40
2022-09-28T01:26:46.881Z,11.40
2022-09-28T01:29:23.285Z,11.50
2022-09-28T01:31:56.612Z,11.40
2022-09-28T01:34:27.339Z,11.40
2022-09-28T01:36:58.841Z,11.40
2022-09-28T01:39:32.471Z,11.50
2022-09-28T01:42:06.796Z,11.40
2022-09-28T01:44:39.854Z,11.50
2022-09-28T01:47:11.472Z,11.50
2022-09-28T01:49:44.973Z,11.50
2022-09-28T01:52:18.659Z,11.50
2022-09-28T01:54:51.249Z,11.50
2022-09-28T01:57:26.753Z,11.40
2022-09-28T02:00:07.511Z,11.40
2022-09-28T02:02:39.430Z,11.40
2022-09-28T02:05:13.046Z,11.50
2022-09-28T02:07:46.863Z,11.40
2022-09-28T02:10:17.692Z,11.40
2022-09-28T02:12:50.193Z,11.40
2022-09-28T02:15:22.043Z,11.50
2022-09-28T02:17:50.838Z,11.50
2022-09-28T02:20:19.519Z,11.40
2022-09-28T02:22:51.163Z,11.50
2022-09-28T02:25:27.787Z,11.50
2022-09-28T02:28:00.919Z,11.50
2022-09-28T02:30:30.532Z,11.50
2022-09-28T02:33:07.282Z,11.50
2022-09-28T02:35:35.735Z,11.60
2022-09-28T02:38:03.890Z,11.60
2022-09-28T02:40:34.960Z,11.60
2022-09-28T02:43:13.313Z,11.60
2022-09-28T02:45:54.991Z,11.60
2022-09-28T02:48:43.956Z,11.60
2022-09-28T02:51:24.013Z,11.70
2022-09-28T02:54:21.656Z,11.70
2022-09-28T02:57:06.020Z,11.70
2022-09-28T02:59:54.232Z,11.70
2022-09-28T03:02:29.983Z,11.80
2022-09-28T03:05:21.686Z,11.70
2022-09-28T03:07:58.546Z,11.70
2022-09-28T03:10:35.952Z,11.70
2022-09-28T03:13:05.627Z,11.70
2022-09-28T03:15:36.317Z,11.70
2022-09-28T03:18:05.307Z,11.70
2022-09-28T03:20:35.201Z,11.70
2022-09-28T03:23:23.992Z,11.70
2022-09-28T03:25:52.228Z,11.70
2022-09-28T03:28:21.325Z,11.70
2022-09-28T03:30:51.070Z,11.60
2022-09-28T03:33:19.787Z,11.60
2022-09-28T03:35:49.089Z,11.60
2022-09-28T03:38:18.262Z,11.60
2022-09-28T03:40:53.264Z,11.60
2022-09-28T03:43:21.509Z,11.70
2022-09-28T03:45:55.257Z,11.70
2022-09-28T03:48:28.665Z,11.70
2022-09-28T03:51:00.818Z,11.70
2022-09-28T03:53:29.999Z,11.70
2022-09-28T03:56:03.169Z,11.70
2022-09-28T03:58:31.358Z,11.70
2022-09-28T04:01:05.795Z,11.70
2022-09-28T04:03:34.611Z,11.70
2022-09-28T04:06:02.937Z,11.70
2022-09-28T04:08:31.055Z,11.70
2022-09-28T04:10:59.796Z,11.70
2022-09-28T04:13:28.817Z,11.70
2022-09-28T04:15:59.298Z,11.70
2022-09-28T04:18:29.496Z,11.70
2022-09-28T04:21:07.022Z,11.70
2022-09-28T04:23:36.701Z,11.70
2022-09-28T04:26:05.810Z,11.70
2022-09-28T04:28:51.490Z,11.70
2022-09-28T04:31:22.581Z,11.70
2022-09-28T04:33:52.357Z,11.70
2022-09-28T04:36:20.763Z,11.70
2022-09-28T04:38:53.246Z,11.70
2022-09-28T04:41:22.905Z,11.70
2022-09-28T04:43:51.381Z,11.70
2022-09-28T04:46:19.892Z,11.70
2022-09-28T04:48:48.085Z,11.70
2022-09-28T04:51:17.585Z,11.70
2022-09-28T04:53:45.780Z,11.70
2022-09-28T04:56:15.243Z,11.70
2022-09-28T04:58:44.756Z,11.70
2022-09-28T05:01:24.338Z,11.60
2022-09-28T05:03:52.558Z,11.60
2022-09-28T05:06:22.935Z,11.60
2022-09-28T05:08:51.077Z,11.60
2022-09-28T05:11:21.364Z,11.60
2022-09-28T05:13:50.441Z,11.50
2022-09-28T05:16:20.396Z,11.50
2022-09-28T05:18:48.753Z,11.50
2022-09-28T05:21:20.117Z,11.50
2022-09-28T05:23:49.690Z,11.40
2022-09-28T05:26:18.078Z,11.40
2022-09-28T05:28:46.314Z,11.40
2022-09-28T05:31:14.467Z,11.40
2022-09-28T05:33:42.561Z,11.30
2022-09-28T05:36:11.632Z,11.40
2022-09-28T05:38:40.183Z,11.30
2022-09-28T05:41:09.805Z,11.30
2022-09-28T05:43:38.485Z,11.30
2022-09-28T05:46:07.383Z,11.40
2022-09-28T05:48:35.811Z,11.40
2022-09-28T05:51:04.210Z,11.40
2022-09-28T05:53:32.301Z,11.40
2022-09-28T05:56:00.881Z,11.40
2022-09-28T05:58:30.843Z,11.40
2022-09-28T06:00:59.142Z,11.40
2022-09-28T06:03:27.342Z,11.40
2022-09-28T06:05:55.879Z,11.40
2022-09-28T06:08:24.161Z,11.40
2022-09-28T06:10:52.265Z,11.40
2022-09-28T06:13:20.742Z,11.50
2022-09-28T06:15:50.557Z,11.50
2022-09-28T06:18:18.883Z,11.40
2022-09-28T06:20:47.050Z,11.40
2022-09-28T06:23:15.606Z,11.40
2022-09-28T06:25:43.921Z,11.40
2022-09-28T06:28:16.285Z,11.40
2022-09-28T06:30:45.162Z,11.40
2022-09-28T06:33:16.344Z,11.40
2022-09-28T06:35:44.525Z,11.50
2022-09-28T06:38:13.059Z,11.50
2022-09-28T06:40:41.262Z,11.50
2022-09-28T06:43:14.884Z,11.50
2022-09-28T06:45:44.332Z,11.60
2022-09-28T06:48:15.052Z,11.60
2022-09-28T06:50:43.407Z,11.60
2022-09-28T06:53:13.654Z,11.60
2022-09-28T06:55:42.471Z,11.70
2022-09-28T06:58:15.563Z,11.80
2022-09-28T07:00:44.134Z,11.80
2022-09-28T07:03:15.931Z,11.90
2022-09-28T07:05:46.628Z,11.90
2022-09-28T07:08:15.891Z,12.00
2022-09-28T07:10:46.536Z,12.00
2022-09-28T07:13:40.184Z,12.00
2022-09-28T07:16:03.723Z,12.00
2022-09-28T07:18:33.348Z,12.00
2022-09-28T07:21:02.895Z,12.00
2022-09-28T07:23:31.365Z,12.00
2022-09-28T07:26:05.765Z,12.00
2022-09-28T07:28:34.750Z,12.00
2022-09-28T07:31:03.730Z,12.00
2022-09-28T07:33:33.436Z,12.00
2022-09-28T07:36:06.492Z,12.10
2022-09-28T07:38:34.913Z,12.00
2022-09-28T07:41:14.838Z,12.10
2022-09-28T07:43:43.651Z,12.10
2022-09-28T07:46:13.234Z,12.10
2022-09-28T07:48:45.751Z,12.10
2022-09-28T07:51:13.964Z,12.10
2022-09-28T07:53:43.295Z,12.10
2022-09-28T07:56:11.987Z,12.10
2022-09-28T07:58:41.222Z,12.10
2022-09-28T08:01:11.891Z,12.10
2022-09-28T08:03:40.556Z,12.10
2022-09-28T08:06:12.786Z,12.10
2022-09-28T08:08:44.626Z,12.10
2022-09-28T08:11:13.615Z,12.10
2022-09-28T08:13:41.965Z,12.10
2022-09-28T08:16:10.041Z,12.10
2022-09-28T08:18:38.225Z,12.20
2022-09-28T08:21:25.149Z,12.20
2022-09-28T08:23:54.843Z,12.20
2022-09-28T08:26:22.998Z,12.30
2022-09-28T08:28:51.263Z,12.30
2022-09-28T08:31:19.454Z,12.40
2022-09-28T08:33:54.434Z,12.50
2022-09-28T08:36:22.636Z,12.70
2022-09-28T08:38:50.863Z,12.90
2022-09-28T08:41:27.694Z,13.10
2022-09-28T08:44:17.061Z,13.40
2022-09-28T08:46:48.569Z,13.60
2022-09-28T08:49:26.295Z,13.70
2022-09-28T08:52:00.567Z,13.70
2022-09-28T08:54:36.523Z,13.80
2022-09-28T08:57:11.310Z,13.70
2022-09-28T08:59:48.142Z,13.70
2022-09-28T09:02:20.225Z,13.70
2022-09-28T09:04:48.800Z,13.70
2022-09-28T09:07:52.309Z,13.60
2022-09-28T09:10:48.397Z,13.70
2022-09-28T09:13:35.431Z,13.70
2022-09-28T09:16:12.588Z,13.70
2022-09-28T09:18:49.514Z,13.80
2022-09-28T09:21:30.518Z,13.90
2022-09-28T09:24:05.101Z,13.90
2022-09-28T09:26:39.215Z,14.00
2022-09-28T09:29:23.546Z,14.00
2022-09-28T09:32:15.571Z,14.10
2022-09-28T09:34:58.961Z,14.10
2022-09-28T09:37:40.252Z,14.20
2022-09-28T09:40:28.074Z,14.20
2022-09-28T09:43:07.360Z,14.40
2022-09-28T09:45:51.360Z,14.60
2022-09-28T09:48:26.984Z,15.00
2022-09-28T09:50:58.465Z,15.20
2022-09-28T09:53:36.209Z,15.50
2022-09-28T09:56:13.325Z,15.70
2022-09-28T09:58:46.208Z,15.70
2022-09-28T10:01:19.399Z,15.70
2022-09-28T10:03:49.253Z,15.70
2022-09-28T10:06:20.603Z,15.60
2022-09-28T10:08:53.887Z,15.40
2022-09-28T10:11:23.430Z,15.30
2022-09-28T10:13:52.117Z,15.20
2022-09-28T10:16:21.852Z,15.00
2022-09-28T10:18:50.708Z,14.90
2022-09-28T10:21:23.128Z,14.80
2022-09-28T10:23:56.661Z,14.60
2022-09-28T10:26:30.216Z,14.60
2022-09-28T10:29:03.036Z,14.60
2022-09-28T10:31:41.584Z,14.70
2022-09-28T10:34:14.206Z,14.80
2022-09-28T10:36:52.616Z,14.90
2022-09-28T10:39:30.587Z,15.00
2022-09-28T10:42:00.431Z,15.10
2022-09-28T10:44:28.832Z,15.20
2022-09-28T10:47:01.498Z,15.40
2022-09-28T10:49:31.936Z,15.60
2022-09-28T10:52:00.251Z,15.80
2022-09-28T10:54:30.922Z,15.90
2022-09-28T10:57:00.246Z,16.00
2022-09-28T10:59:42.060Z,16.10
2022-09-28T11:02:26.022Z,16.10
2022-09-28T11:04:56.574Z,16.10
2022-09-28T11:07:27.241Z,16.10
2022-09-28T11:09:56.803Z,16.10
2022-09-28T11:12:27.335Z,16.10
2022-09-28T11:15:01.703Z,16.10
2022-09-28T11:17:33.513Z,16.00
2022-09-28T11:20:26.768Z,16.00
2022-09-28T11:22:57.041Z,15.90
2022-09-28T11:25:27.627Z,15.90
2022-09-28T11:28:01.707Z,15.80
2022-09-28T11:30:33.915Z,15.70
2022-09-28T11:33:15.011Z,15.60
2022-09-28T11:35:51.356Z,15.50
2022-09-28T11:38:34.131Z,15.40
2022-09-28T11:41:18.420Z,15.30
2022-09-28T11:44:06.080Z,15.20
2022-09-28T11:46:41.524Z,15.20
2022-09-28T11:49:27.642Z,15.20
2022-09-28T11:52:02.816Z,15.10
2022-09-28T11:54:35.252Z,15.20
2022-09-28T11:57:08.264Z,15.20
2022-09-28T11:59:43.882Z,15.20
2022-09-28T12:02:17.865Z,15.30
2022-09-28T12:04:53.319Z,15.30
2022-09-28T12:07:26.911Z,15.30
2022-09-28T12:09:59.277Z,15.30
2022-09-28T12:12:33.541Z,15.30
2022-09-28T12:15:05.550Z,15.40
2022-09-28T12:17:40.037Z,15.60
2022-09-28T12:20:19.430Z,15.90
2022-09-28T12:22:53.369Z,16.20
2022-09-28T12:25:24.422Z,16.50
2022-09-28T12:27:57.417Z,16.70
2022-09-28T12:30:26.524Z,16.90
2022-09-28T12:32:58.349Z,16.90
2022-09-28T12:35:40.675Z,16.90
2022-09-28T12:38:30.301Z,16.80
2022-09-28T12:41:07.856Z,16.70
2022-09-28T12:43:55.121Z,16.60
2022-09-28T12:46:41.333Z,16.60
2022-09-28T12:52:34.139Z,17.20
2022-09-28T12:55:24.473Z,17.60
2022-09-28T12:58:04.416Z,17.90
2022-09-28T13:00:41.087Z,18.10
2022-09-28T13:03:35.309Z,18.20
2022-09-28T13:06:46.238Z,18.20
2022-09-28T13:09:24.609Z,18.30
2022-09-28T13:12:05.227Z,18.50
2022-09-28T13:15:10.109Z,18.70
2022-09-28T13:17:46.322Z,18.80
2022-09-28T13:20:25.661Z,18.90
2022-09-28T13:23:02.327Z,19.00
2022-09-28T13:25:36.249Z,19.00
2022-09-28T13:28:06.100Z,19.00
2022-09-28T13:30:36.982Z,19.00
2022-09-28T13:33:08.122Z,19.10
2022-09-28T13:35:36.251Z,19.20
2022-09-28T13:38:44.347Z,19.30
2022-09-28T13:41:17.794Z,19.40
2022-09-28T13:44:03.224Z,19.40
2022-09-28T13:46:42.144Z,19.40
2022-09-28T13:49:18.423Z,19.30
2022-09-28T13:52:03.890Z,19.20
2022-09-28T13:54:51.985Z,19.00
2022-09-28T13:57:27.903Z,18.80
2022-09-28T14:00:08.613Z,18.70
2022-09-28T14:02:40.983Z,18.60
2022-09-28T14:05:49.100Z,18.50
2022-09-28T14:08:39.611Z,18.40
2022-09-28T14:11:49.218Z,18.30
2022-09-28T14:14:49.181Z,18.20
2022-09-28T14:17:53.971Z,18.10
2022-09-28T14:20:28.147Z,18.00
2022-09-28T14:23:21.007Z,18.00
2022-09-28T14:26:29.361Z,18.00
2022-09-28T14:29:10.152Z,17.90
2022-09-28T14:31:43.832Z,17.80
2022-09-28T14:34:27.248Z,17.80
2022-09-28T14:37:12.893Z,17.80
2022-09-28T14:40:03.634Z,17.80
2022-09-28T14:42:32.018Z,17.80
2022-09-28T14:45:20.402Z,17.90
2022-09-28T14:48:21.432Z,17.90
2022-09-28T14:50:51.502Z,18.00
2022-09-28T14:53:23.911Z,18.00
2022-09-28T14:55:56.568Z,17.90
2022-09-28T14:58:27.506Z,17.90
2022-09-28T15:01:02.183Z,17.80
2022-09-28T15:03:33.814Z,17.80
2022-09-28T15:06:03.283Z,17.80
2022-09-28T15:08:39.388Z,17.70
2022-09-28T15:11:21.392Z,17.70
2022-09-28T15:13:53.252Z,17.70
2022-09-28T15:16:25.175Z,17.60
2022-09-28T15:19:24.641Z,17.50
2022-09-28T15:21:54.610Z,17.50
2022-09-28T15:24:27.374Z,17.40
2022-09-28T15:26:59.045Z,17.40
2022-09-28T15:29:31.113Z,17.40
2022-09-28T15:31:59.695Z,17.30
2022-09-28T15:34:49.350Z,17.30
2022-09-28T15:37:22.561Z,17.30
2022-09-28T15:39:52.606Z,17.30
2022-09-28T15:42:21.883Z,17.30
2022-09-28T15:45:24.791Z,17.20
2022-09-28T15:47:57.670Z,17.20
2022-09-28T15:50:29.191Z,17.10
2022-09-28T15:53:01.726Z,17.00
2022-09-28T15:55:33.047Z,16.90
2022-09-28T15:58:16.599Z,16.80
2022-09-28T16:00:45.088Z,16.80
2022-09-28T16:03:28.831Z,16.90
2022-09-28T16:06:08.026Z,16.90
2022-09-28T16:08:42.163Z,17.00
2022-09-28T16:11:16.245Z,17.00
2022-09-28T16:13:56.598Z,17.00
2022-09-28T16:16:29.903Z,16.90
2022-09-28T16:18:58.717Z,16.90
2022-09-28T16:21:36.235Z,16.70
2022-09-28T16:24:07.383Z,16.60
2022-09-28T16:26:38.998Z,16.60
2022-09-28T16:29:25.882Z,16.40
2022-09-28T16:31:54.235Z,16.40
2022-09-28T16:34:26.445Z,16.30
2022-09-28T16:36:56.164Z,16.10
2022-09-28T16:39:25.715Z,16.10
2022-09-28T16:41:56.830Z,16.00
2022-09-28T16:44:27.050Z,15.90
2022-09-28T16:46:57.059Z,15.80
2022-09-28T16:49:26.953Z,15.70
2022-09-28T16:51:55.291Z,15.70
2022-09-28T16:54:47.755Z,15.60
2022-09-28T16:57:16.759Z,15.50
2022-09-28T16:59:45.107Z,15.40
2022-09-28T17:02:46.372Z,15.40
2022-09-28T17:05:10.211Z,15.30
2022-09-28T17:07:38.552Z,15.20
2022-09-28T17:10:17.674Z,15.20
2022-09-28T17:12:45.948Z,15.10
2022-09-28T17:15:15.739Z,15.00
2022-09-28T17:17:43.879Z,14.90
2022-09-28T17:20:20.335Z,14.90
2022-09-28T17:22:48.830Z,14.80
2022-09-28T17:25:18.571Z,14.70
2022-09-28T17:27:48.822Z,14.70
2022-09-28T17:30:17.537Z,14.60
2022-09-28T17:32:47.104Z,14.60
2022-09-28T17:35:25.460Z,14.50
2022-09-28T17:37:54.448Z,14.50
2022-09-28T17:40:25.758Z,14.50
2022-09-28T17:42:56.126Z,14.50
2022-09-28T17:45:25.810Z,14.50
2022-09-28T17:47:54.034Z,14.40
2022-09-28T17:50:25.421Z,14.40
2022-09-28T17:52:55.662Z,14.30
2022-09-28T17:55:28.576Z,14.30
2022-09-28T17:57:57.636Z,14.30
2022-09-28T18:00:27.824Z,14.30
2022-09-28T18:02:56.181Z,14.30
2022-09-28T18:05:25.674Z,14.20
2022-09-28T18:07:54.705Z,14.20
2022-09-28T18:10:26.355Z,14.10
2022-09-28T18:12:54.691Z,14.10
2022-09-28T18:15:22.827Z,14.00
2022-09-28T18:17:50.967Z,14.00
2022-09-28T18:20:19.107Z,13.90
2022-09-28T18:22:47.235Z,13.90
2022-09-28T18:25:15.352Z,13.90
2022-09-28T18:27:44.840Z,13.80
2022-09-28T18:30:13.421Z,13.80
2022-09-28T18:32:41.588Z,13.80
2022-09-28T18:35:11.315Z,13.80
2022-09-28T18:37:40.032Z,13.80
2022-09-28T18:40:09.991Z,13.80
2022-09-28T18:42:38.319Z,13.80
2022-09-28T18:45:11.896Z,13.80
2022-09-28T18:47:40.151Z,13.80
2022-09-28T18:50:09.246Z,13.80
2022-09-28T18:52:37.836Z,13.90
2022-09-28T18:55:07.578Z,13.90
2022-09-28T18:57:36.544Z,13.90
2022-09-28T19:00:09.224Z,13.80
2022-09-28T19:02:38.013Z,13.80
2022-09-28T19:05:07.285Z,13.80
2022-09-28T19:07:35.947Z,13.80
2022-09-28T19:10:04.313Z,13.70
2022-09-28T19:12:33.847Z,13.70
2022-09-28T19:15:02.019Z,13.80
2022-09-28T19:17:31.605Z,13.70
2022-09-28T19:19:59.754Z,13.80
2022-09-28T19:22:28.003Z,13.70
2022-09-28T19:24:56.827Z,13.80
2022-09-28T19:27:24.954Z,13.80
2022-09-28T19:29:53.036Z,13.80
2022-09-28T19:32:21.106Z,13.80
2022-09-28T19:34:50.709Z,13.80
2022-09-28T19:37:18.811Z,13.80
2022-09-28T19:39:46.891Z,13.80
2022-09-28T19:42:15.003Z,13.80
2022-09-28T19:44:43.937Z,13.80
2022-09-28T19:47:13.091Z,13.70
2022-09-28T19:49:41.893Z,13.70
2022-09-28T19:52:15.620Z,13.70
2022-09-28T19:54:54.395Z,13.70
2022-09-28T19:57:23.470Z,13.70
2022-09-28T19:59:52.775Z,13.70
2022-09-28T20:02:22.109Z,13.70
2022-09-28T20:04:50.375Z,13.70
2022-09-28T20:07:19.911Z,13.70
2022-09-28T20:09:48.073Z,13.70
2022-09-28T20:12:16.175Z,13.70
2022-09-28T20:14:44.298Z,13.70
2022-09-28T20:17:12.452Z,13.70
2022-09-28T20:19:40.564Z,13.70
2022-09-28T20:22:08.732Z,13.70
2022-09-28T20:24:38.251Z,13.70
2022-09-28T20:27:06.778Z,13.70
2022-09-28T20:29:35.332Z,13.70
2022-09-28T20:32:04.402Z,13.70
2022-09-28T20:34:33.574Z,13.70
2022-09-28T20:37:01.936Z,13.70
2022-09-28T20:39:30.087Z,13.70
2022-09-28T20:41:59.899Z,13.70
2022-09-28T20:44:28.234Z,13.70
2022-09-28T20:46:56.763Z,13.70
2022-09-28T20:49:26.276Z,13.70
2022-09-28T20:51:54.547Z,13.70
2022-09-28T20:54:22.751Z,13.70
2022-09-28T20:56:50.895Z,13.70
2022-09-28T20:59:22.884Z,13.60
2022-09-28T21:01:51.292Z,13.60
2022-09-28T21:04:19.588Z,13.60
2022-09-28T21:06:47.823Z,13.60
2022-09-28T21:09:15.926Z,13.60
2022-09-28T21:11:44.208Z,13.60
2022-09-28T21:14:12.451Z,13.50
2022-09-28T21:16:42.182Z,13.50
2022-09-28T21:19:10.298Z,13.40
2022-09-28T21:21:38.372Z,13.40
2022-09-28T21:24:06.955Z,13.40
2022-09-28T21:26:35.223Z,13.40
2022-09-28T21:29:05.403Z,13.40
2022-09-28T21:31:38.361Z,13.40
2022-09-28T21:34:08.422Z,13.30
2022-09-28T21:36:36.740Z,13.30
2022-09-28T21:39:09.533Z,13.30
2022-09-28T21:41:38.749Z,13.30
2022-09-28T21:44:07.764Z,13.30
2022-09-28T21:46:36.697Z,13.30
2022-09-28T21:49:07.783Z,13.20
2022-09-28T21:51:36.255Z,13.20
2022-09-28T21:54:04.591Z,13.20
2022-09-28T21:56:32.663Z,13.10
2022-09-28T21:59:01.214Z,13.10
2022-09-28T22:01:29.511Z,13.00
2022-09-28T22:03:58.295Z,13.00
2022-09-28T22:06:29.079Z,12.90
2022-09-28T22:08:57.717Z,12.80
2022-09-28T22:11:27.279Z,12.80
2022-09-28T22:13:57.282Z,12.70
2022-09-28T22:16:27.370Z,12.60
2022-09-28T22:18:55.523Z,12.60
2022-09-28T22:21:24.838Z,12.50
2022-09-28T22:23:55.041Z,12.50
2022-09-28T22:26:25.111Z,12.50
2022-09-28T22:28:55.005Z,12.40
2022-09-28T22:31:25.099Z,12.40
2022-09-28T22:33:53.710Z,12.40
2022-09-28T22:36:22.318Z,12.30
2022-09-28T22:38:50.800Z,12.30
2022-09-28T22:41:21.623Z,12.20
2022-09-28T22:43:50.900Z,12.20
2022-09-28T22:46:20.704Z,12.10
2022-09-28T22:48:50.138Z,12.10
2022-09-28T22:51:18.696Z,12.10
2022-09-28T22:53:46.968Z,12.00
2022-09-28T22:56:18.808Z,12.00
2022-09-28T22:58:48.751Z,12.00
2022-09-28T23:01:18.749Z,12.00
2022-09-28T23:03:47.206Z,12.00
2022-09-28T23:06:17.943Z,12.00
2022-09-28T23:08:47.405Z,12.00
2022-09-28T23:11:15.997Z,12.00
2022-09-28T23:13:44.390Z,11.90
2022-09-28T23:16:14.897Z,11.90
2022-09-28T23:18:43.826Z,11.90
2022-09-28T23:21:15.241Z,11.90
2022-09-28T23:23:43.502Z,11.90
2022-09-28T23:26:13.252Z,11.80
2022-09-28T23:28:41.850Z,11.80
2022-09-28T23:31:11.610Z,11.70
2022-09-28T23:33:41.171Z,11.70
2022-09-28T23:36:10.490Z,11.60
2022-09-28T23:38:39.092Z,11.60
2022-09-28T23:41:07.312Z,11.60
2022-09-28T23:43:36.342Z,11.60
2022-09-28T23:46:04.961Z,11.50
2022-09-28T23:48:33.476Z,11.50
2022-09-28T23:51:03.501Z,11.50
2022-09-28T23:53:33.250Z,11.50
2022-09-28T23:56:01.547Z,11.40
2022-09-28T23:58:29.672Z,11.50
